MV Lockmaster — WDF4136 — position and weather

sailwx.info

Track history (hours):
 
Tides and Currents Weather Stations Pressure Air Temp Water Temp Dewpoint Dewpoint Depression Visibility Wind Speed Wind Dir Waves Ship Positions

MV Lockmaster

Owner: River Construction, Metaire, LA. More information available from US FCC via Universal Licensing System and Coast Guard Vessel Documentation Center.

Last reported at 2015-Mar-30 08:26 UTC. Time now 2015-Mar-30 09:26 UTC.
Position N 29°60' W 089°59'.

Type: Towing. MMSI: 367448420.

Date/timePositionNaut miles runAvg speedWind from/ knotsBaromVisibWave heightAir tempDewpointWater temp
2015-Mar-30 08:26N 29°60' W 089°59'0 0.0
2015-Mar-30 07:29N 29°60' W 089°59'0 0.0
2015-Mar-29 11:04N 29°60' W 089°59'0 0.4
2015-Mar-29 10:05N 29°60' W 089°60'0 0.0
2015-Mar-29 09:25N 29°60' W 089°60'3 1.3
2015-Mar-29 07:19N 29°57' W 090°02'0 0.1
2015-Mar-29 06:32N 29°57' W 090°02'1 0.5
2015-Mar-29 05:30N 29°58' W 090°02'1 0.6
2015-Mar-29 04:24N 29°59' W 090°01'2 1.8
2015-Mar-29 03:11N 29°60' W 089°59'0 0.0
2015-Mar-29 02:32N 29°60' W 089°59'0 0.0
2015-Mar-29 01:31N 29°60' W 089°59'0 0.0
2015-Mar-29 00:32N 29°60' W 089°59'0 0.0
2015-Mar-28 23:33N 29°60' W 089°59'0 0.0
2015-Mar-28 22:34N 29°60' W 089°59'0 0.0
2015-Mar-28 21:32N 29°60' W 089°59'0 0.0
2015-Mar-28 20:32N 29°60' W 089°59'0 0.1
2015-Mar-28 19:32N 29°60' W 089°59'3 3.0
2015-Mar-28 18:33N 29°58' W 090°02'1 0.7
2015-Mar-28 17:32N 29°58' W 090°02'0 0.1
2015-Mar-28 16:32N 29°58' W 090°02'1 0.8
2015-Mar-28 15:32N 29°58' W 090°02'3 2.9
2015-Mar-28 14:33N 29°60' W 089°59'10 1.1
2015-Mar-28 05:11N 29°57' W 090°10'2 1.0
2015-Mar-28 03:29N 29°56' W 090°08'3 2.9
2015-Mar-28 02:29N 29°55' W 090°05'3 2.9
2015-Mar-28 01:33N 29°57' W 090°03'1 1.3
2015-Mar-28 00:24N 29°57' W 090°02'1 0.7
2015-Mar-27 23:33N 29°58' W 090°02'3 2.7
2015-Mar-27 22:32N 29°60' W 089°59'0 0.0
2015-Mar-27 21:32N 29°60' W 089°59'0 0.0
2015-Mar-27 20:31N 29°60' W 089°59'0 0.0
2015-Mar-27 19:33N 29°60' W 089°59'0 0.0
2015-Mar-27 18:33N 29°60' W 089°59'0 0.0
2015-Mar-27 17:33N 29°60' W 089°59'0 0.0
2015-Mar-27 16:33N 29°60' W 089°59'0 0.0
2015-Mar-27 15:31N 29°60' W 089°59'0 0.0
2015-Mar-27 14:32N 29°60' W 089°59'0 0.0
2015-Mar-27 13:31N 29°60' W 089°59'3 0.2
2015-Mar-26 22:32N 29°58' W 090°02'0 0.1
2015-Mar-26 18:09N 29°58' W 090°02'2 0.6
2015-Mar-26 14:12N 29°60' W 089°59'0 0.0
2015-Mar-26 13:33N 29°60' W 089°59'0 0.4
2015-Mar-26 12:18N 29°60' W 090°00'2 1.0
2015-Mar-26 10:28N 30°00' W 089°58'1 1.5
2015-Mar-26 09:32N 29°60' W 089°59'0 0.0
2015-Mar-26 08:33N 30°00' W 089°59'0 0.0
2015-Mar-26 07:33N 29°60' W 089°59'0 0.2
2015-Mar-26 06:33N 30°00' W 089°59'3 3.1
2015-Mar-26 05:33N 29°58' W 090°02'4 2.0
2015-Mar-26 03:33N 29°55' W 089°58'4 4.0
2015-Mar-26 02:30N 29°58' W 090°02'0 0.3
2015-Mar-26 01:32N 29°58' W 090°02'0 0.1
2015-Mar-26 00:33N 29°58' W 090°01'0 0.5
2015-Mar-25 23:33N 29°58' W 090°02'0 0.1
2015-Mar-25 22:33N 29°58' W 090°02'0 0.0
2015-Mar-25 21:33N 29°58' W 090°02'0 0.0
2015-Mar-25 20:32N 29°58' W 090°02'3 0.1
2015-Mar-24 23:13N 29°60' W 089°59'0 0.0
2015-Mar-24 22:27N 30°00' W 089°59'0 0.0
2015-Mar-24 21:14N 30°00' W 089°59'0 0.0
2015-Mar-24 18:24N 30°00' W 089°59'0 0.0
2015-Mar-24 17:31N 30°00' W 089°59'0 0.0
2015-Mar-24 16:33N 30°00' W 089°59'0 0.0
2015-Mar-24 15:23N 30°00' W 089°59'3 3.0
2015-Mar-24 14:27N 29°58' W 090°02'0 0.1
2015-Mar-24 13:33N 29°58' W 090°02'0 0.0
2015-Mar-24 12:33N 29°58' W 090°02'4 3.8
2015-Mar-24 11:30N 29°55' W 089°58'0 0.1
2015-Mar-24 09:21N 29°55' W 089°58'4 5.0
2015-Mar-24 08:31N 29°58' W 090°02'1 1.2
2015-Mar-24 07:33N 29°59' W 090°01'1 1.0
2015-Mar-24 06:03N 29°60' W 089°60'2 4.1
2015-Mar-24 05:32N 29°58' W 090°02'1 0.9
2015-Mar-24 04:32N 29°57' W 090°01'1 0.6
2015-Mar-24 03:32N 29°58' W 090°02'3 2.8
2015-Mar-24 02:31N 29°60' W 089°59'0 0.1
2015-Mar-24 01:33N 29°60' W 089°59'0 0.0
2015-Mar-23 07:25N 29°60' W 089°59'0 0.0
2015-Mar-23 05:33N 30°00' W 089°59'0 0.0
2015-Mar-23 04:33N 30°00' W 089°59'0 0.0
2015-Mar-23 02:10N 30°00' W 089°59'0 0.0
2015-Mar-23 01:23N 30°00' W 089°59'0 0.0
2015-Mar-23 00:10N 30°00' W 089°59'0 0.0
2015-Mar-22 23:05N 29°60' W 089°59'0 0.0
2015-Mar-22 22:28N 30°00' W 089°59'0 0.0
2015-Mar-22 21:28N 30°00' W 089°59'0 0.0
2015-Mar-22 20:27N 30°00' W 089°59'3 1.5
2015-Mar-22 18:33N 29°58' W 090°02'1 0.9
2015-Mar-22 17:32N 29°57' W 090°02'0 0.3
2015-Mar-22 16:28N 29°57' W 090°02'1 0.7
2015-Mar-22 15:29N 29°58' W 090°02'2 2.2
2015-Mar-22 14:32N 29°60' W 090°00'1 0.8
2015-Mar-22 13:33N 30°00' W 089°59'0 0.0
2015-Mar-22 12:32N 30°00' W 089°59'0 0.0
2015-Mar-22 11:32N 30°00' W 089°59'0 0.0
2015-Mar-22 10:33N 30°00' W 089°59'0 0.0
2015-Mar-22 09:33N 30°00' W 089°59'0 0.0
2015-Mar-22 08:32N 30°00' W 089°59'0 0.0
2015-Mar-22 07:33N 29°60' W 089°59'0 0.0
2015-Mar-22 06:30N 29°60' W 089°59'2 0.1
2015-Mar-21 08:22N 29°59' W 090°01'1 1.3
2015-Mar-21 07:31N 29°58' W 090°02'4 3.6
2015-Mar-21 06:22N 29°56' W 089°58'4 4.8
2015-Mar-21 05:31N 29°58' W 090°02'3 1.3
2015-Mar-21 03:20N 29°60' W 089°59'0 0.2
2015-Mar-21 02:30N 30°00' W 089°59'0 0.0
2015-Mar-21 01:29N 29°60' W 089°59'0 0.0
2015-Mar-21 00:32N 30°00' W 089°59'0 0.0
2015-Mar-20 23:24N 29°60' W 089°59'4 4.3
2015-Mar-20 22:31N 30°01' W 089°55'4 3.9
2015-Mar-20 21:33N 30°00' W 089°59'0 0.0
2015-Mar-20 20:29N 30°00' W 089°59'2 2.0
2015-Mar-20 19:33N 29°59' W 090°01'2 1.5
2015-Mar-20 18:31N 29°57' W 090°01'4 1.9
2015-Mar-20 16:28N 29°55' W 089°58'4 4.4
2015-Mar-20 15:29N 29°58' W 090°02'0 0.4
2015-Mar-20 14:33N 29°58' W 090°01'0 0.0
2015-Mar-20 13:31N 29°58' W 090°01'  
Track history (hours):
 
Tides and Currents Weather Stations Pressure Air Temp Water Temp Dewpoint Dewpoint Depression Visibility Wind Speed Wind Dir Waves Ship Positions

MV Lockmaster

Owner: River Construction, Metaire, LA. More information available from US FCC via Universal Licensing System and Coast Guard Vessel Documentation Center.

Last reported at 2015-Mar-30 08:26 UTC. Time now 2015-Mar-30 09:26 UTC.
Position N 29°60' W 089°59'.

Type: Towing. MMSI: 367448420.

Date/timePositionNaut miles runAvg speedWind from/ knotsBaromVisibWave heightAir tempDewpointWater temp
2015-Mar-30 08:26N 29°60' W 089°59'0 0.0
2015-Mar-30 07:29N 29°60' W 089°59'0 0.0
2015-Mar-29 11:04N 29°60' W 089°59'0 0.4
2015-Mar-29 10:05N 29°60' W 089°60'0 0.0
2015-Mar-29 09:25N 29°60' W 089°60'3 1.3
2015-Mar-29 07:19N 29°57' W 090°02'0 0.1
2015-Mar-29 06:32N 29°57' W 090°02'1 0.5
2015-Mar-29 05:30N 29°58' W 090°02'1 0.6
2015-Mar-29 04:24N 29°59' W 090°01'2 1.8
2015-Mar-29 03:11N 29°60' W 089°59'0 0.0
2015-Mar-29 02:32N 29°60' W 089°59'0 0.0
2015-Mar-29 01:31N 29°60' W 089°59'0 0.0
2015-Mar-29 00:32N 29°60' W 089°59'0 0.0
2015-Mar-28 23:33N 29°60' W 089°59'0 0.0
2015-Mar-28 22:34N 29°60' W 089°59'0 0.0
2015-Mar-28 21:32N 29°60' W 089°59'0 0.0
2015-Mar-28 20:32N 29°60' W 089°59'0 0.1
2015-Mar-28 19:32N 29°60' W 089°59'3 3.0
2015-Mar-28 18:33N 29°58' W 090°02'1 0.7
2015-Mar-28 17:32N 29°58' W 090°02'0 0.1
2015-Mar-28 16:32N 29°58' W 090°02'1 0.8
2015-Mar-28 15:32N 29°58' W 090°02'3 2.9
2015-Mar-28 14:33N 29°60' W 089°59'10 1.1
2015-Mar-28 05:11N 29°57' W 090°10'2 1.0
2015-Mar-28 03:29N 29°56' W 090°08'3 2.9
2015-Mar-28 02:29N 29°55' W 090°05'3 2.9
2015-Mar-28 01:33N 29°57' W 090°03'1 1.3
2015-Mar-28 00:24N 29°57' W 090°02'1 0.7
2015-Mar-27 23:33N 29°58' W 090°02'3 2.7
2015-Mar-27 22:32N 29°60' W 089°59'0 0.0
2015-Mar-27 21:32N 29°60' W 089°59'0 0.0
2015-Mar-27 20:31N 29°60' W 089°59'0 0.0
2015-Mar-27 19:33N 29°60' W 089°59'0 0.0
2015-Mar-27 18:33N 29°60' W 089°59'0 0.0
2015-Mar-27 17:33N 29°60' W 089°59'0 0.0
2015-Mar-27 16:33N 29°60' W 089°59'0 0.0
2015-Mar-27 15:31N 29°60' W 089°59'0 0.0
2015-Mar-27 14:32N 29°60' W 089°59'0 0.0
2015-Mar-27 13:31N 29°60' W 089°59'3 0.2
2015-Mar-26 22:32N 29°58' W 090°02'0 0.1
2015-Mar-26 18:09N 29°58' W 090°02'2 0.6
2015-Mar-26 14:12N 29°60' W 089°59'0 0.0
2015-Mar-26 13:33N 29°60' W 089°59'0 0.4
2015-Mar-26 12:18N 29°60' W 090°00'2 1.0
2015-Mar-26 10:28N 30°00' W 089°58'1 1.5
2015-Mar-26 09:32N 29°60' W 089°59'0 0.0
2015-Mar-26 08:33N 30°00' W 089°59'0 0.0
2015-Mar-26 07:33N 29°60' W 089°59'0 0.2
2015-Mar-26 06:33N 30°00' W 089°59'3 3.1
2015-Mar-26 05:33N 29°58' W 090°02'4 2.0
2015-Mar-26 03:33N 29°55' W 089°58'4 4.0
2015-Mar-26 02:30N 29°58' W 090°02'0 0.3
2015-Mar-26 01:32N 29°58' W 090°02'0 0.1
2015-Mar-26 00:33N 29°58' W 090°01'0 0.5
2015-Mar-25 23:33N 29°58' W 090°02'0 0.1
2015-Mar-25 22:33N 29°58' W 090°02'0 0.0
2015-Mar-25 21:33N 29°58' W 090°02'0 0.0
2015-Mar-25 20:32N 29°58' W 090°02'3 0.1
2015-Mar-24 23:13N 29°60' W 089°59'0 0.0
2015-Mar-24 22:27N 30°00' W 089°59'0 0.0
2015-Mar-24 21:14N 30°00' W 089°59'0 0.0
2015-Mar-24 18:24N 30°00' W 089°59'0 0.0
2015-Mar-24 17:31N 30°00' W 089°59'0 0.0
2015-Mar-24 16:33N 30°00' W 089°59'0 0.0
2015-Mar-24 15:23N 30°00' W 089°59'3 3.0
2015-Mar-24 14:27N 29°58' W 090°02'0 0.1
2015-Mar-24 13:33N 29°58' W 090°02'0 0.0
2015-Mar-24 12:33N 29°58' W 090°02'4 3.8
2015-Mar-24 11:30N 29°55' W 089°58'0 0.1
2015-Mar-24 09:21N 29°55' W 089°58'4 5.0
2015-Mar-24 08:31N 29°58' W 090°02'1 1.2
2015-Mar-24 07:33N 29°59' W 090°01'1 1.0
2015-Mar-24 06:03N 29°60' W 089°60'2 4.1
2015-Mar-24 05:32N 29°58' W 090°02'1 0.9
2015-Mar-24 04:32N 29°57' W 090°01'1 0.6
2015-Mar-24 03:32N 29°58' W 090°02'3 2.8
2015-Mar-24 02:31N 29°60' W 089°59'0 0.1
2015-Mar-24 01:33N 29°60' W 089°59'0 0.0
2015-Mar-23 07:25N 29°60' W 089°59'0 0.0
2015-Mar-23 05:33N 30°00' W 089°59'0 0.0
2015-Mar-23 04:33N 30°00' W 089°59'0 0.0
2015-Mar-23 02:10N 30°00' W 089°59'0 0.0
2015-Mar-23 01:23N 30°00' W 089°59'0 0.0
2015-Mar-23 00:10N 30°00' W 089°59'0 0.0
2015-Mar-22 23:05N 29°60' W 089°59'0 0.0
2015-Mar-22 22:28N 30°00' W 089°59'0 0.0
2015-Mar-22 21:28N 30°00' W 089°59'0 0.0
2015-Mar-22 20:27N 30°00' W 089°59'3 1.5
2015-Mar-22 18:33N 29°58' W 090°02'1 0.9
2015-Mar-22 17:32N 29°57' W 090°02'0 0.3
2015-Mar-22 16:28N 29°57' W 090°02'1 0.7
2015-Mar-22 15:29N 29°58' W 090°02'2 2.2
2015-Mar-22 14:32N 29°60' W 090°00'1 0.8
2015-Mar-22 13:33N 30°00' W 089°59'0 0.0
2015-Mar-22 12:32N 30°00' W 089°59'0 0.0
2015-Mar-22 11:32N 30°00' W 089°59'0 0.0
2015-Mar-22 10:33N 30°00' W 089°59'0 0.0
2015-Mar-22 09:33N 30°00' W 089°59'0 0.0
2015-Mar-22 08:32N 30°00' W 089°59'0 0.0
2015-Mar-22 07:33N 29°60' W 089°59'0 0.0
2015-Mar-22 06:30N 29°60' W 089°59'2 0.1
2015-Mar-21 08:22N 29°59' W 090°01'1 1.3
2015-Mar-21 07:31N 29°58' W 090°02'4 3.6
2015-Mar-21 06:22N 29°56' W 089°58'4 4.8
2015-Mar-21 05:31N 29°58' W 090°02'3 1.3
2015-Mar-21 03:20N 29°60' W 089°59'0 0.2
2015-Mar-21 02:30N 30°00' W 089°59'0 0.0
2015-Mar-21 01:29N 29°60' W 089°59'0 0.0
2015-Mar-21 00:32N 30°00' W 089°59'0 0.0
2015-Mar-20 23:24N 29°60' W 089°59'4 4.3
2015-Mar-20 22:31N 30°01' W 089°55'4 3.9
2015-Mar-20 21:33N 30°00' W 089°59'0 0.0
2015-Mar-20 20:29N 30°00' W 089°59'2 2.0
2015-Mar-20 19:33N 29°59' W 090°01'2 1.5
2015-Mar-20 18:31N 29°57' W 090°01'4 1.9
2015-Mar-20 16:28N 29°55' W 089°58'4 4.4
2015-Mar-20 15:29N 29°58' W 090°02'0 0.4
2015-Mar-20 14:33N 29°58' W 090°01'0 0.0
2015-Mar-20 13:31N 29°58' W 090°01'  

Dump ship's entire track history